createdAt,value
2018-11-04T03:47:28.177Z,5.39
2018-11-04T03:49:54.607Z,5.48
2018-11-04T03:52:21.002Z,5.45
2018-11-04T03:54:48.444Z,5.57
2018-11-04T03:57:14.852Z,5.85
2018-11-04T03:59:41.257Z,5.63
2018-11-04T04:02:07.645Z,5.49
2018-11-04T04:04:34.339Z,5.47
2018-11-04T04:07:00.731Z,5.38
2018-11-04T04:09:27.147Z,5.48
2018-11-04T04:11:53.546Z,5.45
2018-11-04T04:14:20.242Z,5.59
2018-11-04T04:16:46.650Z,5.56
2018-11-04T04:19:13.074Z,5.67
2018-11-04T04:29:27.411Z,6.79
2018-11-04T04:31:53.822Z,6.68
2018-11-04T04:39:01.135Z,6.45
2018-11-04T04:41:27.673Z,6.56
2018-11-04T04:43:57.270Z,6.58
2018-11-04T04:46:24.246Z,6.48
2018-11-04T05:12:30.827Z,6.69
2018-11-04T05:14:58.305Z,6.70
2018-11-04T05:17:24.743Z,6.77
2018-11-04T05:19:52.099Z,6.54
2018-11-04T05:22:18.570Z,6.50
2018-11-04T05:24:45.235Z,6.43
2018-11-04T05:27:13.633Z,6.41
2018-11-04T05:29:40.561Z,6.57
2018-11-04T05:32:07.126Z,6.87
2018-11-04T05:55:23.731Z,7.91
2018-11-04T05:57:50.141Z,8.03
2018-11-04T06:00:16.546Z,8.20
2018-11-04T06:07:21.424Z,8.70
2018-11-04T06:47:42.828Z,9.26
2018-11-04T06:50:09.279Z,9.32
2018-11-04T06:52:35.762Z,9.39
2018-11-04T06:55:02.455Z,9.44
2018-11-04T07:17:44.043Z,9.64
2018-11-04T07:20:10.473Z,9.70
2018-11-04T07:39:47.263Z,9.78
2018-11-04T07:43:34.893Z,9.85
2018-11-04T07:46:01.285Z,9.85
2018-11-04T07:48:28.333Z,9.87
2018-11-04T07:56:52.798Z,9.99
2018-11-04T07:59:19.337Z,10.02
2018-11-04T08:01:45.836Z,10.04
2018-11-04T08:04:13.874Z,10.00
2018-11-04T08:06:42.626Z,10.07
2018-11-04T08:35:00.252Z,10.32
2018-11-04T08:37:26.813Z,10.36
2018-11-04T08:39:56.193Z,10.37
2018-11-04T08:49:57.433Z,10.43
2018-11-04T09:32:34.828Z,10.82
2018-11-04T09:35:01.443Z,10.93
2018-11-04T09:37:28.326Z,11.08
2018-11-04T09:55:40.042Z,11.36
2018-11-04T09:58:06.446Z,11.38
2018-11-04T10:05:18.159Z,11.61
2018-11-04T10:07:45.857Z,11.59
2018-11-04T10:10:13.871Z,11.70
2018-11-04T10:12:40.377Z,11.71
2018-11-04T10:15:41.920Z,11.55
2018-11-04T10:18:08.334Z,11.67
2018-11-04T10:20:35.741Z,11.80
2018-11-04T10:23:02.362Z,11.81
2018-11-04T10:25:28.777Z,11.73
2018-11-04T10:27:55.311Z,11.76
2018-11-04T11:26:48.391Z,12.13
2018-11-04T11:29:15.443Z,12.21
2018-11-04T13:21:24.641Z,12.86
2018-11-04T13:23:51.362Z,12.95
2018-11-04T14:28:14.139Z,12.21
2018-11-04T15:00:51.449Z,11.80
2018-11-04T15:33:27.466Z,11.41
2018-11-04T15:35:54.036Z,11.41
2018-11-04T15:38:20.886Z,11.39
2018-11-04T15:52:04.519Z,11.22
2018-11-04T15:54:31.008Z,11.18
2018-11-04T16:26:39.062Z,11.46
2018-11-04T16:31:20.134Z,11.22
2018-11-04T16:47:02.558Z,11.03
2018-11-04T16:49:29.251Z,11.02
2018-11-04T16:51:55.662Z,11.02
2018-11-04T17:27:40.185Z,10.65
2018-11-04T17:30:09.419Z,10.68
2018-11-04T17:49:30.533Z,10.50
2018-11-04T17:52:00.232Z,10.51
2018-11-04T17:54:27.107Z,10.46
2018-11-04T18:11:57.493Z,10.23
2018-11-04T18:14:24.175Z,10.21
2018-11-04T18:16:51.872Z,10.16
2018-11-04T18:29:29.214Z,10.09
2018-11-04T18:31:56.719Z,9.99
2018-11-04T18:34:23.199Z,9.89
2018-11-04T18:36:49.664Z,9.75
2018-11-04T18:39:16.583Z,9.59
2018-11-04T18:41:43.351Z,9.40
2018-11-04T18:53:54.620Z,8.81
2018-11-04T18:56:21.874Z,8.64
2018-11-04T18:58:48.644Z,8.51
2018-11-04T19:26:06.262Z,7.95
2018-11-04T19:30:06.291Z,7.86
2018-11-04T20:44:29.393Z,7.42
2018-11-04T20:46:58.827Z,7.38
2018-11-04T20:49:27.490Z,7.37
2018-11-04T20:51:53.954Z,7.35
2018-11-04T20:54:20.372Z,7.38
2018-11-04T20:56:47.229Z,7.38
2018-11-04T20:59:14.318Z,7.32
2018-11-04T21:01:41.377Z,7.44
2018-11-04T22:57:37.610Z,6.58
2018-11-04T23:32:35.683Z,6.87
2018-11-04T23:35:02.090Z,6.86
2018-11-04T23:37:28.789Z,6.90
2018-11-04T23:39:55.189Z,7.02
2018-11-04T23:50:49.313Z,6.81
2018-11-04T23:53:15.740Z,6.73
2018-11-04T23:55:42.172Z,6.74
2018-11-04T23:58:08.614Z,6.94
